Time;durP1;ratioP1;P1;durP2;ratioP2;P2;SDS_P1;SDS_P2;PMS_P1;PMS_P2;Temp;Humidity;BMP_temperature;BMP_pressure;BME280_temperature;BME280_humidity;BME280_pressure;Samples;Min_cycle;Max_cycle;Signal;HPM_P1;HPM_P2
2021/08/02 00:00:03;;;;;;;9.48;8.25;;;;;;;14.98;88.35;95831.79;1740198;79;20940;-77
2021/08/02 00:02:37;;;;;;;10.30;9.30;;;;;;;14.97;88.91;95845.89;1772580;79;20963;-77
2021/08/02 00:05:06;;;;;;;9.30;8.40;;;;;;;14.93;88.76;95848.64;1785879;79;20917;-77
2021/08/02 00:07:35;;;;;;;10.23;9.23;;;;;;;14.91;88.77;95851.98;1800706;79;20985;-78
2021/08/02 00:10:14;;;;;;;10.53;9.43;;;;;;;14.93;88.40;95854.37;1760375;81;21006;-77
2021/08/02 00:12:49;;;;;;;10.85;9.75;;;;;;;14.94;88.70;95860.70;1794280;79;20977;-77
2021/08/02 00:15:17;;;;;;;12.33;10.93;;;;;;;14.94;88.56;95863.82;1788262;79;21379;-77
2021/08/02 00:17:43;;;;;;;13.78;11.12;;;;;;;14.92;88.46;95866.66;1785466;79;20956;-77
2021/08/02 00:20:19;;;;;;;11.55;10.35;;;;;;;14.93;88.54;95873.48;1766293;79;20941;-77
2021/08/02 00:22:46;;;;;;;12.60;11.30;;;;;;;14.94;88.45;95878.21;1781049;79;21193;-77
2021/08/02 00:25:12;;;;;;;11.33;8.90;;;;;;;14.89;88.15;95882.01;1775356;79;20926;-77
2021/08/02 00:27:38;;;;;;;12.45;10.53;;;;;;;14.87;88.47;95886.16;1786984;79;20989;-77
2021/08/02 00:30:06;;;;;;;14.20;11.08;;;;;;;14.84;88.11;95885.29;1784183;79;20941;-77
2021/08/02 00:32:33;;;;;;;13.43;9.73;;;;;;;14.89;88.25;95880.70;1784456;79;20988;-79
2021/08/02 00:35:00;;;;;;;12.98;9.90;;;;;;;14.88;88.04;95874.67;1778721;79;21004;-80
2021/08/02 00:37:41;;;;;;;10.32;9.33;;;;;;;14.89;87.72;95871.03;1784944;79;21017;-79
2021/08/02 00:40:47;;;;;;;12.30;10.68;;;;;;;14.90;87.71;95873.94;1776471;79;20955;-79
2021/08/02 00:44:02;;;;;;;15.15;12.30;;;;;;;14.89;87.71;95876.77;1779118;79;21057;-79
2021/08/02 00:46:32;;;;;;;12.00;10.70;;;;;;;14.89;87.91;95883.31;1713733;79;20907;-79
2021/08/02 00:49:02;;;;;;;12.80;9.83;;;;;;;14.95;88.15;95887.14;1771448;79;20961;-79
2021/08/02 00:51:28;;;;;;;11.63;9.80;;;;;;;14.95;87.93;95883.22;1781927;79;21279;-79
2021/08/02 00:53:58;;;;;;;12.10;10.13;;;;;;;14.98;88.01;95883.31;1747893;79;20898;-79
2021/08/02 00:56:24;;;;;;;13.28;10.38;;;;;;;15.01;87.87;95882.36;1780368;79;21019;-79
2021/08/02 00:58:49;;;;;;;13.45;10.55;;;;;;;15.05;87.88;95880.09;1794075;79;20933;-78
2021/08/02 01:01:15;;;;;;;12.00;10.78;;;;;;;15.13;87.68;95873.25;1753553;80;21311;-78
2021/08/02 01:03:41;;;;;;;11.12;9.45;;;;;;;15.16;87.58;95872.80;1787570;79;20974;-78
2021/08/02 01:06:08;;;;;;;10.43;8.73;;;;;;;15.17;87.16;95872.29;1759629;80;20920;-79
2021/08/02 01:08:37;;;;;;;8.73;7.83;;;;;;;15.16;86.96;95880.66;1775715;79;20951;-78
2021/08/02 01:11:11;;;;;;;10.60;7.50;;;;;;;15.19;86.88;95876.27;1778250;80;21305;-78
2021/08/02 01:13:38;;;;;;;8.43;7.53;;;;;;;15.20;86.67;95879.17;1803384;78;20931;-78
2021/08/02 01:16:06;;;;;;;9.00;7.50;;;;;;;15.24;86.70;95876.39;1792930;78;21240;-78
2021/08/02 01:18:33;;;;;;;9.98;7.28;;;;;;;15.25;86.23;95877.99;1800666;78;20914;-79
2021/08/02 01:21:08;;;;;;;8.08;7.28;;;;;;;15.22;86.14;95882.37;1775621;79;20925;-78
2021/08/02 01:23:35;;;;;;;7.70;6.65;;;;;;;15.25;86.40;95875.38;1783964;79;20978;-78
2021/08/02 01:26:26;;;;;;;7.75;6.67;;;;;;;15.26;86.18;95886.64;1784804;79;21289;-78
2021/08/02 01:29:48;;;;;;;7.25;5.55;;;;;;;15.24;85.65;95883.45;1780801;79;21022;-77
2021/08/02 01:32:15;;;;;;;6.25;5.65;;;;;;;15.24;85.82;95893.92;1783166;79;20982;-77
2021/08/02 01:34:41;;;;;;;6.47;5.70;;;;;;;15.25;85.91;95894.20;1776224;79;20959;-77
2021/08/02 01:37:07;;;;;;;8.30;6.40;;;;;;;15.26;85.68;95893.98;1797049;78;20911;-77
2021/08/02 01:39:34;;;;;;;6.83;5.12;;;;;;;15.22;85.63;95889.42;1795947;78;22081;-77
2021/08/02 01:42:01;;;;;;;5.67;5.08;;;;;;;15.21;85.63;95887.83;1784778;79;20926;-77
2021/08/02 01:44:28;;;;;;;5.05;4.55;;;;;;;15.18;85.38;95886.45;1780638;79;20940;-77
2021/08/02 01:47:08;;;;;;;5.25;4.33;;;;;;;15.17;85.20;95897.15;1780989;79;20912;-78
2021/08/02 01:50:00;;;;;;;7.05;5.10;;;;;;;15.17;84.89;95899.77;1777139;79;20905;-77
2021/08/02 01:52:30;;;;;;;5.42;4.72;;;;;;;15.15;85.14;95907.05;1783038;79;20912;-79
2021/08/02 01:55:08;;;;;;;6.58;4.62;;;;;;;15.16;85.52;95906.02;1792424;78;21265;-79
2021/08/02 01:57:53;;;;;;;6.55;4.75;;;;;;;15.07;85.09;95901.59;1802211;78;20939;-79
2021/08/02 02:00:18;;;;;;;4.78;3.90;;;;;;;15.07;85.42;95915.98;1773965;79;21268;-79
2021/08/02 02:03:10;;;;;;;4.62;4.10;;;;;;;15.04;85.37;95909.89;1797713;78;21010;-79
2021/08/02 02:05:38;;;;;;;;;;;;;;;15.08;85.24;95914.16;1802525;78;21010;-79
2021/08/02 02:08:15;;;;;;;7.20;4.25;;;;;;;15.07;85.20;95912.56;1812141;78;20136;-79
2021/08/02 02:10:45;;;;;;;5.42;4.60;;;;;;;15.06;85.23;95908.36;1780039;79;21256;-79
2021/08/02 02:13:19;;;;;;;5.72;4.30;;;;;;;15.05;85.37;95905.45;1770137;79;20995;-79
2021/08/02 02:15:48;;;;;;;5.37;3.77;;;;;;;15.07;85.41;95908.64;1805523;78;20937;-78
2021/08/02 02:18:15;;;;;;;6.12;4.20;;;;;;;15.07;85.49;95912.06;1767986;79;20920;-78
2021/08/02 02:20:43;;;;;;;4.00;3.27;;;;;;;15.08;85.17;95908.93;1774996;80;20944;-78
2021/08/02 02:23:11;;;;;;;4.55;3.08;;;;;;;15.05;84.65;95912.80;1783504;79;20908;-78
2021/08/02 02:25:38;;;;;;;4.10;3.70;;;;;;;15.04;85.02;95915.13;1783587;79;20928;-78
2021/08/02 02:28:04;;;;;;;3.80;3.37;;;;;;;15.04;84.85;95916.43;1775807;79;21257;-78
2021/08/02 02:30:29;;;;;;;5.20;3.87;;;;;;;15.05;85.00;95915.92;1772436;79;20938;-79
2021/08/02 02:32:55;;;;;;;4.83;3.00;;;;;;;15.04;85.14;95919.55;1774706;79;20975;-78
2021/08/02 02:35:22;;;;;;;4.58;3.47;;;;;;;15.04;84.87;95923.48;1774631;79;20956;-79
2021/08/02 02:37:48;;;;;;;3.72;3.35;;;;;;;15.04;84.71;95922.97;1773011;79;20929;-79
2021/08/02 02:40:14;;;;;;;4.70;3.02;;;;;;;15.03;84.55;95923.99;1777387;79;20987;-79
2021/08/02 02:42:40;;;;;;;3.85;3.40;;;;;;;14.98;84.45;95922.05;1774012;79;21938;-78
2021/08/02 02:45:07;;;;;;;5.58;3.22;;;;;;;14.95;84.76;95923.77;1778999;79;21002;-79
2021/08/02 02:47:33;;;;;;;4.42;3.17;;;;;;;14.96;84.61;95924.05;1797262;78;20974;-79
2021/08/02 02:49:59;;;;;;;5.62;3.30;;;;;;;14.91;84.70;95923.13;1801970;78;21205;-79
2021/08/02 02:52:25;;;;;;;4.78;3.20;;;;;;;14.88;84.48;95934.03;1767835;79;20968;-79
2021/08/02 02:54:50;;;;;;;4.60;3.05;;;;;;;14.91;84.73;95933.08;1764882;80;20917;-79
2021/08/02 02:57:17;;;;;;;4.97;2.90;;;;;;;14.96;84.78;95935.83;1744761;79;21297;-79
2021/08/02 02:59:43;;;;;;;3.67;2.85;;;;;;;14.97;84.56;95932.22;1761461;79;20934;-79
2021/08/02 03:02:09;;;;;;;3.58;2.95;;;;;;;14.93;84.31;95932.86;1764325;79;20996;-79
2021/08/02 03:04:38;;;;;;;5.08;3.45;;;;;;;14.91;84.63;95934.90;1771050;79;21336;-76
2021/08/02 03:07:04;;;;;;;4.08;3.60;;;;;;;14.89;84.70;95937.73;1815360;78;20907;-76
2021/08/02 03:09:35;;;;;;;4.30;2.80;;;;;;;14.89;84.77;95935.12;1744636;80;20951;-76
2021/08/02 03:12:02;;;;;;;3.35;3.05;;;;;;;14.91;84.94;95939.63;1767571;79;21019;-76
2021/08/02 03:14:27;;;;;;;3.90;3.05;;;;;;;14.93;84.43;95944.12;1770514;80;20904;-77
2021/08/02 03:16:53;;;;;;;7.05;3.17;;;;;;;14.86;84.08;95948.64;1765942;79;21311;-77
2021/08/02 03:19:20;;;;;;;4.55;3.00;;;;;;;14.81;83.99;95952.94;1812937;78;21051;-77
2021/08/02 03:21:45;;;;;;;5.05;3.35;;;;;;;14.79;84.36;95953.64;1807589;78;21313;-77
2021/08/02 03:24:19;;;;;;;4.85;3.22;;;;;;;14.77;84.14;95955.16;1775122;79;21020;-77
2021/08/02 03:26:58;;;;;;;7.30;3.67;;;;;;;14.74;84.47;95958.22;1753588;80;20968;-77
2021/08/02 03:29:30;;;;;;;6.08;3.83;;;;;;;14.72;84.31;95960.27;1778317;79;20888;-77
2021/08/02 03:32:15;;;;;;;4.67;2.80;;;;;;;14.71;84.51;95962.08;1799699;78;20954;-77
2021/08/02 03:34:40;;;;;;;5.67;3.10;;;;;;;14.72;84.29;95969.41;1801323;78;20977;-77
2021/08/02 03:37:09;;;;;;;3.47;3.17;;;;;;;14.69;84.30;95971.95;1751207;78;21210;-77
2021/08/02 03:39:35;;;;;;;3.05;2.72;;;;;;;14.67;83.95;95977.12;1811581;78;20905;-78
2021/08/02 03:42:01;;;;;;;5.58;3.50;;;;;;;14.59;83.87;95980.80;1779168;80;21020;-78
2021/08/02 03:44:27;;;;;;;3.83;2.60;;;;;;;14.57;83.82;95978.11;1767291;79;21039;-78
2021/08/02 03:46:53;;;;;;;4.22;2.77;;;;;;;14.58;84.01;95982.33;1743850;80;21328;-78
2021/08/02 03:49:19;;;;;;;4.53;3.00;;;;;;;14.63;84.02;95979.85;1744507;80;20983;-77
2021/08/02 03:51:58;;;;;;;3.77;2.72;;;;;;;14.67;84.24;95988.38;1803219;78;21001;-77
2021/08/02 03:54:26;;;;;;;5.92;2.92;;;;;;;14.70;84.23;95985.83;1802926;78;21853;-77
2021/08/02 03:56:52;;;;;;;4.15;2.98;;;;;;;14.72;84.45;95991.64;1764621;80;20999;-77
2021/08/02 03:59:18;;;;;;;4.85;3.30;;;;;;;14.71;84.49;95997.38;1772458;79;20989;-79
2021/08/02 04:01:45;;;;;;;3.08;2.62;;;;;;;14.71;84.55;95999.20;1768310;80;21051;-79
2021/08/02 04:04:11;;;;;;;3.72;2.50;;;;;;;14.71;84.64;95997.38;1777257;80;21686;-79
2021/08/02 04:06:37;;;;;;;3.45;2.62;;;;;;;14.71;84.12;95996.08;1765734;80;21018;-79
2021/08/02 04:09:05;;;;;;;3.75;2.80;;;;;;;14.72;84.17;96003.41;1749097;80;21227;-79
2021/08/02 04:11:31;;;;;;;4.12;2.47;;;;;;;14.68;84.01;95999.64;1749682;80;20900;-79
2021/08/02 04:13:57;;;;;;;3.22;2.47;;;;;;;14.66;84.40;95995.94;1749137;80;21232;-79
2021/08/02 04:16:23;;;;;;;3.22;2.17;;;;;;;14.66;84.46;95992.52;1746598;80;20976;-79
2021/08/02 04:18:48;;;;;;;4.45;2.25;;;;;;;14.66;84.13;96000.36;1750081;80;20884;-79
2021/08/02 04:21:14;;;;;;;3.15;2.20;;;;;;;14.61;83.67;96004.91;1748915;80;21245;-79
2021/08/02 04:23:40;;;;;;;3.37;1.77;;;;;;;14.57;83.83;96008.98;1747458;80;20980;-78
2021/08/02 04:26:07;;;;;;;3.80;2.98;;;;;;;14.58;84.24;96012.39;1749534;80;20932;-78
2021/08/02 04:28:32;;;;;;;3.12;2.58;;;;;;;14.59;84.13;96016.61;1747110;80;21247;-78
2021/08/02 04:30:58;;;;;;;2.40;2.20;;;;;;;14.59;84.37;96023.94;1745260;80;20948;-78
2021/08/02 04:33:24;;;;;;;2.40;1.92;;;;;;;14.59;84.26;96028.38;1745577;80;20985;-78
2021/08/02 04:35:50;;;;;;;3.00;1.85;;;;;;;14.57;84.34;96030.41;1745888;80;21004;-77
2021/08/02 04:38:16;;;;;;;2.42;1.90;;;;;;;14.54;84.28;96035.56;1759717;80;20964;-78
2021/08/02 04:40:42;;;;;;;2.52;1.77;;;;;;;14.52;84.01;96040.20;1754824;80;21290;-78
2021/08/02 04:43:07;;;;;;;2.05;1.60;;;;;;;14.54;84.26;96050.45;1756034;80;20931;-78
2021/08/02 04:45:33;;;;;;;3.60;1.95;;;;;;;14.56;84.60;96045.80;1753789;80;20960;-78
2021/08/02 04:47:59;;;;;;;3.27;1.42;;;;;;;14.58;84.36;96049.00;1764365;80;21266;-78
2021/08/02 04:50:24;;;;;;;2.87;1.87;;;;;;;14.59;84.36;96058.44;1745492;80;21193;-78
2021/08/02 04:52:50;;;;;;;4.42;2.75;;;;;;;14.57;84.62;96054.73;1747056;80;20931;-77
2021/08/02 04:55:17;;;;;;;9.95;8.95;;;;;;;14.57;84.83;96061.27;1751619;80;20958;-77
2021/08/02 04:57:44;;;;;;;5.25;4.00;;;;;;;14.60;84.83;96062.66;1750331;80;21016;-77
2021/08/02 05:00:11;;;;;;;3.67;1.67;;;;;;;14.62;84.61;96064.03;1751921;80;21290;-77
2021/08/02 05:02:37;;;;;;;3.58;1.50;;;;;;;14.66;84.67;96069.15;1790057;77;20994;-77
2021/08/02 05:05:04;;;;;;;2.30;2.00;;;;;;;14.66;84.46;96069.15;1799579;78;20989;-76
2021/08/02 05:07:29;;;;;;;3.62;2.55;;;;;;;14.67;84.71;96066.83;1797369;78;21252;-76
2021/08/02 05:09:56;;;;;;;4.12;3.25;;;;;;;14.69;84.77;96066.61;1808549;78;20989;-77
2021/08/02 05:12:22;;;;;;;4.35;3.72;;;;;;;14.70;84.75;96065.08;1806764;78;20890;-76
2021/08/02 05:14:48;;;;;;;9.63;7.87;;;;;;;14.74;84.94;96056.30;1763106;80;20912;-77
2021/08/02 05:17:13;;;;;;;6.62;5.60;;;;;;;14.74;84.91;96060.22;1769942;79;20889;-77
2021/08/02 05:19:39;;;;;;;3.37;2.20;;;;;;;14.77;85.06;96073.37;1778512;79;20987;-77
2021/08/02 05:22:05;;;;;;;13.62;9.08;;;;;;;14.77;85.04;96080.70;1792081;78;20934;-76
2021/08/02 05:24:31;;;;;;;13.30;10.10;;;;;;;14.84;84.95;96073.61;1801806;78;20903;-77
2021/08/02 05:26:57;;;;;;;10.40;7.40;;;;;;;14.91;85.27;96075.64;1764920;80;21260;-76
2021/08/02 05:29:23;;;;;;;6.42;5.42;;;;;;;14.98;85.08;96076.40;1781327;78;20947;-76
2021/08/02 05:31:48;;;;;;;11.28;9.08;;;;;;;15.06;85.12;96086.28;1797157;78;20983;-76
2021/08/02 05:34:14;;;;;;;9.75;6.97;;;;;;;15.11;85.01;96083.30;1777028;78;21490;-76
2021/08/02 05:36:41;;;;;;;8.23;6.60;;;;;;;15.13;84.91;96078.67;1779758;79;21286;-77
2021/08/02 05:39:08;;;;;;;5.78;4.45;;;;;;;15.14;84.59;96090.73;1771116;79;21324;-77
2021/08/02 05:41:34;;;;;;;7.33;6.22;;;;;;;15.15;84.43;96087.61;1782691;79;20964;-77
2021/08/02 05:44:00;;;;;;;4.50;4.08;;;;;;;15.15;84.19;96090.23;1784369;79;20896;-79
2021/08/02 05:46:27;;;;;;;7.80;7.00;;;;;;;15.16;84.22;96093.94;1769154;79;21063;-78
2021/08/02 05:48:52;;;;;;;4.75;2.72;;;;;;;15.16;84.06;96100.47;1797620;78;21285;-79
2021/08/02 05:51:18;;;;;;;14.30;12.37;;;;;;;15.11;83.96;96100.30;1786464;78;20895;-78
2021/08/02 05:53:44;;;;;;;16.85;12.10;;;;;;;15.08;83.42;96102.56;1767419;79;20951;-79
2021/08/02 05:56:11;;;;;;;5.80;4.95;;;;;;;15.09;83.84;96104.16;1774727;79;21316;-80
2021/08/02 05:58:38;;;;;;;11.35;8.30;;;;;;;15.08;83.22;96099.94;1798062;78;21324;-79
2021/08/02 06:01:04;;;;;;;6.58;5.83;;;;;;;15.11;83.68;96102.12;1792244;79;20962;-78
2021/08/02 06:03:30;;;;;;;15.30;12.50;;;;;;;15.12;83.53;96103.72;1792294;78;21031;-78
2021/08/02 06:05:56;;;;;;;8.93;8.05;;;;;;;15.10;83.64;96110.98;1783167;80;20971;-78
2021/08/02 06:08:22;;;;;;;8.75;7.37;;;;;;;15.13;84.18;96111.86;1774410;79;20959;-78
2021/08/02 06:10:48;;;;;;;6.92;6.08;;;;;;;15.14;84.20;96112.18;1781363;79;21304;-78
2021/08/02 06:13:14;;;;;;;8.58;5.60;;;;;;;15.12;82.90;96107.64;1782522;79;21284;-78
2021/08/02 06:15:39;;;;;;;5.28;4.70;;;;;;;15.12;83.26;96112.37;1789828;78;20911;-78
2021/08/02 06:18:05;;;;;;;6.58;5.30;;;;;;;15.16;83.85;96115.38;1783069;79;20907;-78
2021/08/02 06:20:31;;;;;;;4.40;4.00;;;;;;;15.18;84.05;96115.95;1793771;78;21173;-78
2021/08/02 06:22:57;;;;;;;7.28;5.03;;;;;;;15.25;84.24;96121.41;1787346;78;20912;-78
2021/08/02 06:25:23;;;;;;;3.80;2.80;;;;;;;15.35;84.00;96121.42;1776650;79;20909;-78
2021/08/02 06:27:49;;;;;;;5.53;3.08;;;;;;;15.41;84.05;96119.23;1770803;79;21401;-76
2021/08/02 06:30:16;;;;;;;7.17;6.30;;;;;;;15.47;84.15;96111.32;1778256;79;21241;-76
2021/08/02 06:32:42;;;;;;;15.80;11.65;;;;;;;15.56;84.54;96113.92;1782451;79;21032;-77
2021/08/02 06:35:09;;;;;;;10.98;8.75;;;;;;;15.63;84.35;96111.27;1768740;79;22120;-77
2021/08/02 06:37:40;;;;;;;7.55;6.00;;;;;;;15.66;84.10;96117.89;1743723;80;21009;-78
2021/08/02 06:40:13;;;;;;;5.20;4.50;;;;;;;15.67;84.09;96118.97;1775364;79;20939;-77
2021/08/02 06:42:38;;;;;;;5.60;5.10;;;;;;;15.66;83.14;96123.13;1773939;79;20947;-77
2021/08/02 06:45:06;;;;;;;4.12;3.72;;;;;;;15.71;83.26;96121.44;1793008;78;21327;-76
2021/08/02 06:47:32;;;;;;;6.00;5.08;;;;;;;15.77;82.44;96113.20;1765888;79;20987;-76
2021/08/02 06:49:58;;;;;;;16.55;10.15;;;;;;;15.82;83.18;96114.67;1772910;79;20939;-76
2021/08/02 06:52:23;;;;;;;5.83;4.72;;;;;;;15.84;82.98;96113.42;1775624;80;20920;-76
2021/08/02 06:54:49;;;;;;;5.85;5.15;;;;;;;15.90;83.17;96114.34;1785769;80;21554;-76
2021/08/02 06:57:15;;;;;;;4.20;3.80;;;;;;;15.97;82.79;96119.52;1779597;79;20963;-77
2021/08/02 06:59:41;;;;;;;5.47;4.87;;;;;;;16.01;83.11;96117.54;1781737;79;20976;-77
2021/08/02 07:02:06;;;;;;;10.40;8.90;;;;;;;16.11;83.05;96119.64;1776868;79;20984;-77
2021/08/02 07:04:32;;;;;;;7.30;6.60;;;;;;;16.17;82.97;96125.29;1770158;79;21320;-77
2021/08/02 07:06:58;;;;;;;4.65;4.08;;;;;;;16.22;82.93;96126.72;1773069;79;20963;-77
2021/08/02 07:09:24;;;;;;;4.75;4.08;;;;;;;16.25;82.21;96126.78;1760477;80;21293;-77
2021/08/02 07:11:49;;;;;;;4.08;3.65;;;;;;;16.32;83.39;96127.51;1774153;79;20997;-77
2021/08/02 07:14:15;;;;;;;3.47;3.17;;;;;;;16.43;84.00;96134.11;1784155;79;21018;-78
2021/08/02 07:16:41;;;;;;;3.50;3.20;;;;;;;16.55;83.93;96139.88;1770196;79;20983;-78
2021/08/02 07:19:06;;;;;;;3.90;3.60;;;;;;;16.68;84.03;96139.19;1769210;79;20956;-78
2021/08/02 07:21:32;;;;;;;3.83;3.50;;;;;;;16.76;84.10;96148.06;1758621;79;20979;-77
2021/08/02 07:23:58;;;;;;;4.03;3.67;;;;;;;16.79;82.71;96146.80;1771864;79;21363;-78
2021/08/02 07:26:24;;;;;;;4.65;4.15;;;;;;;16.83;83.24;96156.33;1768318;80;21008;-78
2021/08/02 07:28:50;;;;;;;4.10;3.70;;;;;;;16.83;82.53;96155.81;1761418;79;20974;-77
2021/08/02 07:31:15;;;;;;;3.47;2.92;;;;;;;16.80;82.56;96155.76;1743128;80;20969;-77
2021/08/02 07:33:42;;;;;;;3.87;3.05;;;;;;;16.82;81.77;96162.09;1765850;79;21024;-77
2021/08/02 07:36:08;;;;;;;5.55;4.15;;;;;;;16.85;81.85;96159.52;1768953;79;20960;-77
2021/08/02 07:38:36;;;;;;;4.22;3.83;;;;;;;16.89;81.91;96165.91;1734766;80;21292;-77
2021/08/02 07:41:01;;;;;;;3.70;3.40;;;;;;;16.87;82.14;96163.52;1698800;80;20980;-77
2021/08/02 07:43:27;;;;;;;5.20;3.77;;;;;;;16.91;82.00;96169.10;1765445;80;21003;-77
2021/08/02 07:45:54;;;;;;;3.52;3.12;;;;;;;17.00;82.60;96170.38;1743542;80;20953;-77
2021/08/02 07:48:19;;;;;;;4.62;3.00;;;;;;;17.03;82.00;96166.78;1768851;78;21272;-77
2021/08/02 07:50:45;;;;;;;6.50;2.90;;;;;;;17.11;81.31;96170.91;1784298;78;20973;-76
2021/08/02 07:53:11;;;;;;;3.15;2.85;;;;;;;17.22;80.90;96175.35;1794689;80;20959;-76
2021/08/02 07:55:37;;;;;;;3.60;3.30;;;;;;;17.30;80.48;96178.16;1790737;78;20960;-78
2021/08/02 07:58:09;;;;;;;4.20;3.80;;;;;;;17.32;80.71;96172.97;1800541;78;20963;-77
2021/08/02 08:00:35;;;;;;;4.20;3.33;;;;;;;17.37;80.61;96175.70;1786049;78;20929;-76
2021/08/02 08:03:01;;;;;;;3.15;2.85;;;;;;;17.35;80.36;96173.02;1774556;79;21014;-76
2021/08/02 08:05:29;;;;;;;3.42;3.12;;;;;;;17.29;79.93;96183.13;1772910;79;20984;-76
2021/08/02 08:07:55;;;;;;;3.45;3.15;;;;;;;17.25;79.72;96186.73;1774902;79;20971;-76
2021/08/02 08:10:25;;;;;;;3.47;3.17;;;;;;;17.23;79.09;96183.52;1784164;80;20935;-76
2021/08/02 08:12:51;;;;;;;3.67;3.10;;;;;;;17.22;79.71;96192.42;1782738;78;20959;-78
2021/08/02 08:15:19;;;;;;;3.83;3.40;;;;;;;17.24;79.85;96181.69;1782359;78;20947;-78
2021/08/02 08:17:45;;;;;;;3.05;2.45;;;;;;;17.37;80.56;96187.52;1778783;78;20969;-77
2021/08/02 08:20:13;;;;;;;2.45;2.25;;;;;;;17.43;79.56;96185.81;1768710;79;20964;-77
2021/08/02 08:22:39;;;;;;;3.45;3.15;;;;;;;17.57;79.09;96183.24;1777689;79;20964;-77
2021/08/02 08:25:06;;;;;;;4.45;3.62;;;;;;;17.75;78.75;96186.27;1792975;78;21220;-77
2021/08/02 08:27:31;;;;;;;3.35;3.05;;;;;;;17.86;78.27;96182.80;1787583;78;20902;-77
2021/08/02 08:29:57;;;;;;;3.42;3.12;;;;;;;17.99;77.51;96184.38;1783723;78;20947;-77
2021/08/02 08:32:23;;;;;;;3.20;2.83;;;;;;;18.11;78.54;96185.15;1794244;78;21265;-77
2021/08/02 08:34:48;;;;;;;2.60;2.40;;;;;;;18.27;78.06;96191.50;1788952;78;20995;-77
2021/08/02 08:37:14;;;;;;;2.75;2.55;;;;;;;18.38;76.96;96194.58;1800115;78;20930;-77
2021/08/02 08:39:40;;;;;;;4.42;3.85;;;;;;;18.38;77.06;96189.32;1782718;79;20964;-77
2021/08/02 08:42:06;;;;;;;3.90;3.60;;;;;;;18.45;76.91;96195.77;1777526;79;21250;-78
2021/08/02 08:44:33;;;;;;;4.17;3.77;;;;;;;18.40;75.94;96202.27;1761207;80;20907;-78
2021/08/02 08:46:59;;;;;;;4.53;4.10;;;;;;;18.33;76.31;96205.02;1767632;80;22128;-78
2021/08/02 08:49:25;;;;;;;3.90;3.60;;;;;;;18.35;75.55;96202.95;1774400;79;20931;-79
2021/08/02 08:51:53;;;;;;;3.62;3.25;;;;;;;18.35;74.82;96199.52;1773658;79;20880;-77
2021/08/02 08:54:19;;;;;;;3.52;3.22;;;;;;;18.39;75.52;96190.95;1755090;80;21283;-77
2021/08/02 08:56:44;;;;;;;8.88;8.10;;;;;;;18.38;76.11;96185.89;1776211;79;20908;-77
2021/08/02 08:59:13;;;;;;;6.12;4.78;;;;;;;18.38;76.77;96184.06;1797781;78;20902;-77
2021/08/02 09:01:40;;;;;;;5.15;4.65;;;;;;;18.42;77.46;96179.95;1784258;78;20974;-77
2021/08/02 09:04:06;;;;;;;6.08;3.67;;;;;;;18.44;77.22;96186.28;1795983;78;20981;-77
2021/08/02 09:06:47;;;;;;;4.60;4.03;;;;;;;18.45;75.92;96183.41;1797028;78;21292;-77
2021/08/02 09:09:30;;;;;;;4.22;3.83;;;;;;;18.52;75.33;96188.52;1805703;78;21240;-76
2021/08/02 09:12:14;;;;;;;4.00;3.70;;;;;;;18.50;75.49;96186.65;1729413;80;20960;-79
2021/08/02 09:15:00;;;;;;;4.58;4.17;;;;;;;18.62;72.49;96190.55;1764595;80;21308;-77
2021/08/02 09:17:37;;;;;;;4.62;4.33;;;;;;;18.59;73.45;96191.30;1779624;79;20959;-77
2021/08/02 09:20:20;;;;;;;5.03;4.05;;;;;;;18.60;74.49;96193.42;1769236;79;20963;-77
2021/08/02 09:22:46;;;;;;;4.15;3.77;;;;;;;18.87;72.69;96193.14;1766777;79;21359;-77
2021/08/02 09:25:15;;;;;;;3.92;3.52;;;;;;;18.87;72.98;96194.94;1783428;79;21000;-78
2021/08/02 09:27:43;;;;;;;3.52;3.22;;;;;;;18.82;72.65;96202.24;1784652;79;20973;-78
2021/08/02 09:30:18;;;;;;;4.20;3.80;;;;;;;18.87;72.35;96202.34;1783858;79;20959;-78
2021/08/02 09:33:06;;;;;;;3.90;3.40;;;;;;;19.06;73.28;96196.33;1766854;79;20943;-79
2021/08/02 09:35:39;;;;;;;12.73;4.72;;;;;;;19.14;73.53;96193.28;1760111;80;21233;-78
2021/08/02 09:38:12;;;;;;;4.22;3.83;;;;;;;19.25;72.67;96194.77;1763096;79;21250;-78
2021/08/02 09:40:53;;;;;;;5.12;3.70;;;;;;;19.43;72.22;96202.41;1776850;80;20994;-78
2021/08/02 09:43:23;;;;;;;4.12;3.72;;;;;;;19.58;72.35;96194.75;1754667;80;20942;-77
2021/08/02 09:45:51;;;;;;;3.42;3.10;;;;;;;19.66;71.49;96199.59;1774238;79;20881;-77
2021/08/02 09:48:19;;;;;;;4.55;3.65;;;;;;;19.87;71.90;96195.93;1794609;78;21251;-79
2021/08/02 09:50:49;;;;;;;4.60;4.20;;;;;;;19.93;71.23;96206.28;1808928;78;21205;-79
2021/08/02 09:53:18;;;;;;;4.90;4.10;;;;;;;19.72;69.04;96205.75;1732354;81;21299;-78
2021/08/02 09:55:46;;;;;;;4.25;3.85;;;;;;;19.70;70.36;96209.16;1771030;80;20996;-78
2021/08/02 09:58:21;;;;;;;4.15;3.77;;;;;;;19.70;70.32;96199.93;1785141;80;21924;-79
2021/08/02 10:00:45;;;;;;;4.55;4.08;;;;;;;19.72;69.84;96207.07;1782926;79;20955;-80
2021/08/02 10:03:11;;;;;;;4.60;4.20;;;;;;;19.70;69.91;96204.68;1775715;79;21043;-80
2021/08/02 10:05:38;;;;;;;5.30;3.77;;;;;;;19.78;69.26;96202.92;1767763;79;20932;-80
2021/08/02 10:08:05;;;;;;;4.17;3.70;;;;;;;19.76;70.11;96205.02;1764788;79;21272;-79
2021/08/02 10:10:32;;;;;;;5.15;3.80;;;;;;;20.00;70.22;96200.81;1761611;79;20960;-79
2021/08/02 10:12:58;;;;;;;4.70;4.22;;;;;;;20.28;70.31;96206.43;1782458;79;21252;-79
2021/08/02 10:15:29;;;;;;;4.28;3.85;;;;;;;20.21;69.16;96202.67;1756835;79;20924;-78
2021/08/02 10:17:58;;;;;;;3.83;3.52;;;;;;;20.12;69.04;96208.61;1766731;79;21312;-79
2021/08/02 10:20:26;;;;;;;4.60;4.12;;;;;;;20.03;69.06;96209.06;1764866;79;21210;-79
2021/08/02 10:22:52;;;;;;;5.37;4.17;;;;;;;19.85;68.41;96213.31;1771321;79;21268;-78
2021/08/02 10:25:18;;;;;;;4.65;4.10;;;;;;;19.65;68.86;96217.77;1780701;79;20955;-78
2021/08/02 10:27:44;;;;;;;5.03;4.25;;;;;;;19.52;68.40;96223.86;1767261;79;20972;-76
2021/08/02 10:30:22;;;;;;;4.62;4.22;;;;;;;19.32;69.80;96230.43;1756407;79;20947;-79
2021/08/02 10:32:56;;;;;;;5.50;4.42;;;;;;;19.12;69.90;96237.50;1762490;79;20980;-79
2021/08/02 10:35:43;;;;;;;4.58;3.95;;;;;;;19.01;71.21;96241.52;1776762;79;20959;-79
2021/08/02 10:38:13;;;;;;;5.05;4.55;;;;;;;18.96;71.37;96240.91;1774868;79;21050;-78
2021/08/02 10:40:57;;;;;;;4.55;4.12;;;;;;;18.88;72.71;96243.95;1785489;79;21051;-78
2021/08/02 10:43:32;;;;;;;6.62;4.60;;;;;;;18.68;72.94;96248.31;1785429;79;20983;-78
2021/08/02 10:45:59;;;;;;;4.10;3.60;;;;;;;18.46;73.77;96252.09;1776579;79;20960;-78
2021/08/02 10:48:29;;;;;;;4.75;3.67;;;;;;;18.35;74.09;96249.50;1802528;79;20951;-77
2021/08/02 10:50:56;;;;;;;4.83;3.75;;;;;;;18.24;74.74;96261.15;1781730;79;20931;-77
2021/08/02 10:53:22;;;;;;;4.80;4.40;;;;;;;18.17;74.99;96265.72;1779221;79;21023;-77
2021/08/02 10:55:52;;;;;;;5.12;4.67;;;;;;;18.14;75.40;96272.77;1780541;79;20992;-77
2021/08/02 10:58:29;;;;;;;4.60;4.20;;;;;;;18.10;75.79;96270.84;1798787;79;20934;-78
2021/08/02 11:01:00;;;;;;;4.65;4.25;;;;;;;18.17;76.54;96259.66;1777837;79;21018;-78
2021/08/02 11:03:33;;;;;;;6.42;4.22;;;;;;;18.25;76.74;96262.75;1787587;79;20951;-78
2021/08/02 11:06:11;;;;;;;4.72;4.33;;;;;;;18.26;76.44;96256.97;1801681;79;20990;-78
2021/08/02 11:08:52;;;;;;;4.47;4.03;;;;;;;18.28;76.89;96241.23;1769123;79;20978;-78
2021/08/02 11:11:29;;;;;;;5.20;4.65;;;;;;;18.38;77.11;96239.30;1742018;80;20936;-78
2021/08/02 11:14:17;;;;;;;5.35;4.95;;;;;;;18.46;77.42;96233.69;1783767;79;21284;-78
2021/08/02 11:16:52;;;;;;;6.03;5.53;;;;;;;18.57;77.60;96226.78;1780574;79;20987;-78
2021/08/02 11:19:31;;;;;;;4.92;4.47;;;;;;;18.71;77.80;96227.30;1775123;79;21252;-77
2021/08/02 11:22:02;;;;;;;4.65;4.35;;;;;;;18.80;77.86;96231.16;1770544;79;21252;-78
2021/08/02 11:24:32;;;;;;;5.10;4.60;;;;;;;18.92;76.95;96235.85;1760958;79;21007;-77
2021/08/02 11:27:01;;;;;;;4.35;4.03;;;;;;;19.12;77.58;96235.38;1769998;79;20988;-77
2021/08/02 11:29:29;;;;;;;4.28;3.87;;;;;;;19.21;75.69;96234.48;1791279;79;20983;-78
2021/08/02 11:31:59;;;;;;;4.70;4.22;;;;;;;19.32;76.30;96234.91;1784206;79;20982;-77
2021/08/02 11:34:27;;;;;;;4.80;4.30;;;;;;;19.36;76.49;96238.64;1787218;79;20972;-77
2021/08/02 11:37:05;;;;;;;3.85;3.55;;;;;;;19.43;76.78;96246.68;1787699;79;20897;-78
2021/08/02 11:39:32;;;;;;;4.17;3.87;;;;;;;19.53;76.25;96248.69;1781781;79;20928;-78